Time;durP1;ratioP1;P1;durP2;ratioP2;P2;SDS_P1;SDS_P2;PMS_P1;PMS_P2;Temp;Humidity;BMP_temperature;BMP_pressure;BME280_temperature;BME280_humidity;BME280_pressure;Samples;Min_cycle;Max_cycle;Signal;HPM_P1;HPM_P2
2022/11/19 00:00:23;;;;;;;150.10;37.13;;;;;;;11.02;93.56;98626.38;3144183;28;20055;-68
2022/11/19 00:01:54;;;;;;;159.38;38.03;;;;;;;11.00;94.07;98617.81;3144263;28;20098;-67
2022/11/19 00:03:26;;;;;;;165.13;37.67;;;;;;;11.00;94.01;98620.41;3144182;28;20516;-67
2022/11/19 00:04:58;;;;;;;169.70;39.58;;;;;;;10.98;93.71;98614.50;3144303;28;20052;-67
2022/11/19 00:06:29;;;;;;;148.25;37.78;;;;;;;10.94;94.17;98613.84;3144466;28;20053;-67
2022/11/19 00:08:01;;;;;;;162.48;38.00;;;;;;;10.94;94.21;98613.84;3144315;28;20057;-67
2022/11/19 00:09:33;;;;;;;157.80;36.95;;;;;;;10.94;94.41;98613.84;3144426;28;20102;-67
2022/11/19 00:11:06;;;;;;;165.93;37.75;;;;;;;10.95;94.42;98625.13;3144262;28;20486;-67
2022/11/19 00:12:54;;;;;;;161.93;37.80;;;;;;;10.94;94.54;98626.84;3144488;28;20040;-67
2022/11/19 00:14:25;;;;;;;176.80;37.10;;;;;;;10.92;94.62;98621.75;3144527;28;20106;-67
2022/11/19 00:16:02;;;;;;;160.70;36.28;;;;;;;10.92;95.04;98616.56;3144131;28;20061;-67
2022/11/19 00:17:34;;;;;;;163.27;36.40;;;;;;;10.92;95.16;98631.34;3144266;28;20055;-67
2022/11/19 00:19:06;;;;;;;158.52;35.83;;;;;;;10.91;94.89;98620.09;3144438;28;20067;-67
2022/11/19 00:20:38;;;;;;;160.23;35.95;;;;;;;10.92;95.34;98633.97;3144167;28;20052;-66
2022/11/19 00:22:09;;;;;;;153.93;34.00;;;;;;;10.94;95.23;98629.47;3144243;28;20056;-67
2022/11/19 00:23:41;;;;;;;149.75;34.08;;;;;;;10.95;95.21;98623.34;3144317;28;20052;-67
2022/11/19 00:25:13;;;;;;;148.27;32.55;;;;;;;10.93;94.97;98617.38;3144164;28;20598;-67
2022/11/19 00:26:45;;;;;;;144.82;31.52;;;;;;;10.91;95.41;98625.31;3144048;28;20507;-67
2022/11/19 00:28:18;;;;;;;152.25;33.72;;;;;;;10.90;95.53;98634.03;3144436;28;20052;-67
2022/11/19 00:29:50;;;;;;;142.50;33.67;;;;;;;10.87;95.49;98630.81;3145941;28;20053;-67
2022/11/19 00:31:22;;;;;;;165.52;36.10;;;;;;;10.85;95.56;98623.06;3146603;28;20052;-67
2022/11/19 00:32:56;;;;;;;147.40;32.63;;;;;;;10.81;95.82;98618.19;3146507;28;20056;-68
2022/11/19 00:34:27;;;;;;;;;;;;;;;10.78;95.65;98628.81;3146792;28;20048;-68
2022/11/19 00:35:59;;;;;;;140.20;30.92;;;;;;;10.77;96.11;98627.16;3146451;28;20014;-68
2022/11/19 00:37:31;;;;;;;136.48;29.92;;;;;;;10.79;96.15;98638.28;3146659;28;20058;-68
2022/11/19 00:39:02;;;;;;;139.93;31.70;;;;;;;10.79;96.08;98638.28;3146657;28;20398;-68
2022/11/19 00:40:34;;;;;;;149.43;33.47;;;;;;;10.80;95.95;98656.41;3146247;28;20049;-68
2022/11/19 00:42:06;;;;;;;137.20;31.15;;;;;;;10.82;95.74;98662.34;3146533;28;20056;-68
2022/11/19 00:43:47;;;;;;;131.13;32.42;;;;;;;10.85;95.98;98661.31;3146654;28;20052;-68
2022/11/19 00:45:18;;;;;;;132.20;31.88;;;;;;;10.84;95.96;98667.47;3146352;28;20413;-68
2022/11/19 00:46:50;;;;;;;146.32;31.42;;;;;;;10.85;96.14;98658.72;3146260;28;20048;-68
2022/11/19 00:48:21;;;;;;;143.32;31.75;;;;;;;10.85;96.00;98659.53;3146224;28;20426;-68
2022/11/19 00:49:53;;;;;;;126.18;30.98;;;;;;;10.55;95.92;98615.47;3146436;28;20045;-68
2022/11/19 00:51:26;;;;;;;131.88;33.88;;;;;;;10.89;95.91;98668.00;3146254;28;20056;-68
2022/11/19 00:52:59;;;;;;;137.82;30.60;;;;;;;10.91;95.96;98667.00;3146314;28;20048;-68
2022/11/19 00:54:31;;;;;;;141.13;30.08;;;;;;;10.91;95.76;98674.81;3146662;28;20052;-68
2022/11/19 00:56:04;;;;;;;117.00;27.98;;;;;;;10.90;95.57;98690.50;3146176;28;20114;-68
2022/11/19 00:57:35;;;;;;;122.43;30.20;;;;;;;10.87;95.76;98690.72;3134173;28;20053;-69
2022/11/19 00:59:08;;;;;;;100.97;26.20;;;;;;;10.81;95.92;98668.50;3145084;28;20487;-68
2022/11/19 01:00:40;;;;;;;123.53;30.30;;;;;;;10.86;95.55;98673.41;3146330;28;20113;-67
2022/11/19 01:02:11;;;;;;;118.43;29.13;;;;;;;10.75;95.76;98655.03;3146069;28;20109;-67
2022/11/19 01:03:44;;;;;;;109.88;28.73;;;;;;;10.89;95.45;98676.66;3146354;28;20082;-67
2022/11/19 01:05:16;;;;;;;104.93;27.92;;;;;;;10.89;95.39;98683.63;3145880;28;20064;-67
2022/11/19 01:06:48;;;;;;;118.05;27.98;;;;;;;10.88;95.54;98687.16;3146131;28;20554;-68
2022/11/19 01:08:19;;;;;;;105.72;26.92;;;;;;;10.86;95.36;98692.47;3143000;28;20146;-68
2022/11/19 01:09:50;;;;;;;104.57;28.10;;;;;;;10.85;95.45;98685.59;3146250;28;20048;-67
2022/11/19 01:11:24;;;;;;;97.88;26.38;;;;;;;10.84;95.60;98688.31;3146238;28;20094;-67
2022/11/19 01:14:47;;;;;;;98.25;26.15;;;;;;;10.81;95.40;98680.69;3133879;28;20045;-67
2022/11/19 01:16:19;;;;;;;;;;;;;;;10.75;95.57;98686.28;3142918;28;20056;-67
2022/11/19 01:17:50;;;;;;;96.38;26.75;;;;;;;10.75;95.56;98691.50;3146119;28;19929;-67
2022/11/19 01:19:22;;;;;;;97.32;26.20;;;;;;;10.80;95.65;98697.25;3146229;28;20132;-68
2022/11/19 01:20:53;;;;;;;96.55;25.95;;;;;;;10.67;95.40;98677.19;3145794;28;20048;-67
2022/11/19 01:22:25;;;;;;;102.43;27.52;;;;;;;10.85;95.28;98711.63;3146053;28;20049;-67
2022/11/19 01:23:58;;;;;;;105.55;27.83;;;;;;;10.86;95.15;98720.31;3145821;28;20484;-67
2022/11/19 01:25:29;;;;;;;91.93;26.50;;;;;;;10.86;95.14;98718.53;3146247;28;20049;-67
2022/11/19 01:27:01;;;;;;;94.75;28.20;;;;;;;10.85;95.04;98724.66;3145978;28;20395;-67
2022/11/19 01:28:33;;;;;;;87.78;25.23;;;;;;;10.89;94.83;98726.16;3146030;28;20130;-68
2022/11/19 01:30:08;;;;;;;86.32;26.02;;;;;;;10.91;94.76;98719.06;3145898;28;20096;-66
2022/11/19 01:31:40;;;;;;;81.40;26.08;;;;;;;10.93;94.54;98724.19;3146089;28;20541;-67
2022/11/19 01:33:11;;;;;;;86.85;24.23;;;;;;;10.95;94.18;98730.13;3145926;28;20092;-67
2022/11/19 01:34:43;;;;;;;86.47;24.38;;;;;;;10.94;94.24;98728.44;3145668;28;20485;-68
2022/11/19 01:36:17;;;;;;;77.28;23.95;;;;;;;10.98;93.96;98748.16;3142898;28;20049;-67
2022/11/19 01:37:48;;;;;;;71.25;23.35;;;;;;;10.99;93.97;98754.22;3140722;28;20059;-67
2022/11/19 01:39:20;;;;;;;67.43;22.95;;;;;;;11.00;93.66;98768.91;3140484;28;20048;-67
2022/11/19 01:40:52;;;;;;;70.18;24.25;;;;;;;10.97;93.39;98769.09;3139789;28;20147;-67
2022/11/19 01:44:46;;;;;;;71.82;23.23;;;;;;;10.95;93.51;98779.63;3128466;28;20106;-67
2022/11/19 01:46:20;;;;;;;;;;;;;;;10.87;93.51;98779.25;3141200;28;20048;-67
2022/11/19 01:47:52;;;;;;;69.85;24.23;;;;;;;10.86;93.87;98777.59;3140307;28;20418;-67
2022/11/19 01:49:24;;;;;;;75.10;25.33;;;;;;;10.90;94.00;98772.09;3140552;28;20072;-68
2022/11/19 01:50:58;;;;;;;76.75;24.40;;;;;;;10.90;93.77;98774.69;3140677;28;20068;-67
2022/11/19 01:52:30;;;;;;;69.18;24.02;;;;;;;10.90;93.87;98776.47;3137107;28;20049;-67
2022/11/19 01:54:08;;;;;;;71.15;25.33;;;;;;;10.93;93.82;98784.09;3140334;28;20067;-67
2022/11/19 01:55:41;;;;;;;68.75;24.83;;;;;;;10.93;93.61;98791.91;3140512;28;20048;-67
2022/11/19 01:57:15;;;;;;;;;;;;;;;10.82;93.62;98789.97;3140871;28;20592;-67
2022/11/19 01:58:50;;;;;;;69.93;24.20;;;;;;;10.81;94.17;98795.28;3140608;28;19924;-67
2022/11/19 02:00:21;;;;;;;74.35;25.45;;;;;;;10.81;94.16;98796.09;3140212;28;20083;-67
2022/11/19 02:01:56;;;;;;;66.60;23.70;;;;;;;10.85;94.01;98799.34;3139977;28;20055;-66
2022/11/19 02:03:30;;;;;;;74.10;26.33;;;;;;;10.86;93.80;98806.25;3140334;28;20044;-67
2022/11/19 02:05:03;;;;;;;64.18;24.77;;;;;;;10.87;94.14;98800.94;3140370;28;20297;-68
2022/11/19 02:06:35;;;;;;;74.10;25.65;;;;;;;10.87;93.78;98810.53;3140172;28;20057;-67
2022/11/19 02:08:29;;;;;;;68.72;26.23;;;;;;;10.85;93.88;98808.00;3140319;28;20072;-67
2022/11/19 02:10:03;;;;;;;67.65;24.90;;;;;;;10.86;94.08;98808.84;3140034;28;20056;-68
2022/11/19 02:12:00;;;;;;;72.60;25.00;;;;;;;10.87;93.62;98815.72;3140280;28;20102;-67
2022/11/19 02:13:39;;;;;;;69.00;24.48;;;;;;;10.90;93.85;98824.19;3140170;28;20098;-67
2022/11/19 02:15:29;;;;;;;71.55;24.75;;;;;;;10.91;93.70;98825.88;3140270;28;20048;-67
2022/11/19 02:17:13;;;;;;;72.75;24.48;;;;;;;10.94;93.66;98814.41;3137978;28;20056;-67
2022/11/19 02:18:53;;;;;;;67.43;25.45;;;;;;;10.97;93.74;98803.78;3140110;28;20045;-67
2022/11/19 02:20:51;;;;;;;72.95;26.05;;;;;;;10.97;93.07;98806.38;3139875;28;20087;-67
2022/11/19 02:22:44;;;;;;;70.53;26.92;;;;;;;11.00;93.41;98801.00;3140023;28;20078;-67
2022/11/19 02:24:44;;;;;;;66.35;25.42;;;;;;;10.99;92.93;98804.53;3140016;28;20502;-67
2022/11/19 02:27:07;;;;;;;60.58;24.38;;;;;;;10.99;92.95;98801.94;3139804;28;20055;-67
2022/11/19 02:28:43;;;;;;;63.63;23.55;;;;;;;11.00;93.06;98792.34;3125888;28;20061;-67
2022/11/19 02:30:18;;;;;;;59.92;22.65;;;;;;;11.03;92.69;98787.81;3140016;28;20453;-67
2022/11/19 02:31:54;;;;;;;59.88;23.05;;;;;;;11.03;92.75;98782.59;3139847;28;20569;-67
2022/11/19 02:33:34;;;;;;;55.75;23.30;;;;;;;11.03;92.42;98784.34;3139857;28;20465;-67
2022/11/19 02:35:14;;;;;;;57.58;23.77;;;;;;;11.00;92.49;98787.13;3127450;28;20072;-67
2022/11/19 02:36:52;;;;;;;58.30;21.83;;;;;;;10.97;92.66;98777.75;3136212;28;20526;-67
2022/11/19 02:38:34;;;;;;;55.30;22.92;;;;;;;10.95;92.11;98778.78;3139829;28;20462;-67
2022/11/19 02:40:10;;;;;;;51.53;21.73;;;;;;;10.92;92.25;98780.66;3139756;28;20638;-67
2022/11/19 02:41:50;;;;;;;54.63;21.67;;;;;;;10.92;92.41;98779.81;3135123;28;20281;-67
2022/11/19 02:43:31;;;;;;;50.13;21.30;;;;;;;10.89;92.44;98777.41;3139737;28;20052;-67
2022/11/19 02:45:09;;;;;;;49.25;20.38;;;;;;;10.94;92.13;98780.53;3140082;28;20105;-70
2022/11/19 02:46:43;;;;;;;49.65;19.83;;;;;;;10.96;92.50;98776.06;3140383;28;20265;-68
2022/11/19 02:48:19;;;;;;;47.05;20.25;;;;;;;10.98;92.38;98776.81;3139281;28;20064;-67
2022/11/19 02:49:53;;;;;;;46.92;19.75;;;;;;;11.00;92.07;98780.16;3139804;28;20058;-67
2022/11/19 02:51:26;;;;;;;45.97;20.27;;;;;;;10.77;92.02;98739.94;3139692;28;20540;-67
2022/11/19 02:52:58;;;;;;;46.30;20.48;;;;;;;11.04;91.64;98794.66;3138745;28;20048;-67
2022/11/19 02:54:30;;;;;;;39.97;18.27;;;;;;;11.05;91.58;98804.16;3139888;28;20110;-67
2022/11/19 02:56:12;;;;;;;42.05;19.58;;;;;;;11.06;91.35;98789.34;3139722;28;20052;-67
2022/11/19 02:57:47;;;;;;;45.95;20.17;;;;;;;11.09;91.51;98796.97;3134000;28;20118;-67
2022/11/19 03:04:59;;;;;;;42.75;17.98;;;;;;;11.05;91.13;98798.09;3139533;28;20098;-68
2022/11/19 03:06:31;;;;;;;46.42;19.50;;;;;;;11.02;91.29;98795.69;3139587;28;20052;-68
2022/11/19 03:08:04;;;;;;;43.25;18.52;;;;;;;11.01;90.79;98800.06;3139538;28;20384;-68
2022/11/19 03:09:41;;;;;;;43.13;19.10;;;;;;;11.01;91.00;98796.66;3139826;28;20110;-67
2022/11/19 03:11:20;;;;;;;42.03;19.20;;;;;;;10.94;90.43;98796.16;3135954;28;20826;-67
2022/11/19 03:12:54;;;;;;;40.65;18.25;;;;;;;10.89;90.45;98796.47;3139402;28;20140;-67
2022/11/19 03:18:23;;;;;;;;;;;;;;;10.70;90.42;98795.94;3128036;28;20136;-66
2022/11/19 03:20:01;;;;;;;32.78;15.50;;;;;;;10.71;90.40;98805.44;3139746;28;20518;-67
2022/11/19 03:21:38;;;;;;;32.83;16.48;;;;;;;10.73;90.54;98800.13;3139465;28;20052;-67
2022/11/19 03:23:18;;;;;;;32.05;16.38;;;;;;;10.69;90.39;98818.53;3127214;28;20098;-67
2022/11/19 03:24:56;;;;;;;33.20;15.23;;;;;;;10.76;90.51;98839.81;3127158;28;20056;-67
2022/11/19 03:26:32;;;;;;;28.95;14.13;;;;;;;10.79;90.26;98844.00;3139013;28;20052;-67
2022/11/19 03:28:11;;;;;;;27.88;13.43;;;;;;;10.81;90.25;98842.97;3139481;28;20048;-67
2022/11/19 03:29:46;;;;;;;26.98;14.38;;;;;;;10.82;90.11;98846.41;3139381;28;20499;-66
2022/11/19 03:31:21;;;;;;;27.92;13.88;;;;;;;10.81;90.30;98844.75;3139340;28;20056;-67
2022/11/19 03:32:59;;;;;;;29.98;14.15;;;;;;;10.83;90.02;98850.72;3139322;28;20626;-67
2022/11/19 03:34:35;;;;;;;30.35;14.23;;;;;;;10.83;90.15;98848.94;3139357;28;20129;-67
2022/11/19 03:36:11;;;;;;;28.83;13.88;;;;;;;10.86;90.13;98850.53;3139297;28;20052;-67
2022/11/19 03:37:46;;;;;;;27.73;13.27;;;;;;;10.84;90.10;98854.97;3139307;28;21641;-67
2022/11/19 03:39:21;;;;;;;29.50;12.88;;;;;;;10.86;90.08;98867.00;3139325;28;20063;-67
2022/11/19 03:40:55;;;;;;;25.88;13.73;;;;;;;10.87;90.13;98868.66;3142746;28;20148;-68
2022/11/19 03:42:27;;;;;;;37.22;17.75;;;;;;;10.89;90.89;98872.00;3144766;28;20057;-67
2022/11/19 03:44:05;;;;;;;42.38;17.27;;;;;;;10.94;90.97;98884.72;3144360;28;20067;-67
2022/11/19 03:45:43;;;;;;;46.95;20.85;;;;;;;10.62;90.81;98834.63;3144613;28;20053;-66
2022/11/19 03:47:18;;;;;;;47.17;20.38;;;;;;;10.84;90.74;98879.25;3144683;28;20094;-67
2022/11/19 03:48:53;;;;;;;50.50;20.45;;;;;;;10.81;90.62;98881.22;3144506;28;20048;-67
2022/11/19 03:50:31;;;;;;;48.13;19.33;;;;;;;10.78;90.17;98884.00;3144461;28;20057;-67
2022/11/19 03:52:07;;;;;;;50.63;20.73;;;;;;;10.56;90.08;98854.06;3144774;28;20045;-67
2022/11/19 03:53:38;;;;;;;51.13;20.88;;;;;;;10.76;90.14;98891.06;3144619;28;20041;-67
2022/11/19 03:55:11;;;;;;;55.85;21.25;;;;;;;10.77;90.01;98908.38;3144500;28;20048;-68
2022/11/19 03:56:44;;;;;;;52.20;21.00;;;;;;;10.75;90.32;98910.25;3144482;28;20048;-67
2022/11/19 03:58:15;;;;;;;57.65;22.10;;;;;;;10.70;90.30;98911.34;3144453;28;20238;-66
2022/11/19 03:59:47;;;;;;;53.40;21.75;;;;;;;10.69;90.32;98909.66;3144874;28;20045;-67
2022/11/19 04:01:20;;;;;;;64.10;23.08;;;;;;;10.69;90.32;98909.66;3144154;28;20053;-67
2022/11/19 04:02:51;;;;;;;61.80;22.15;;;;;;;10.69;90.27;98907.06;3144505;28;20638;-66
2022/11/19 04:04:36;;;;;;;60.85;23.27;;;;;;;10.70;90.00;98911.34;3133299;28;20049;-67
2022/11/19 04:06:10;;;;;;;64.10;24.50;;;;;;;10.46;90.38;98879.78;3134869;28;20056;-67
2022/11/19 04:07:42;;;;;;;59.03;23.10;;;;;;;10.64;90.65;98914.31;3146153;28;20540;-67
2022/11/19 04:09:13;;;;;;;68.82;25.98;;;;;;;10.62;90.72;98910.97;3147006;28;20052;-68
2022/11/19 04:10:45;;;;;;;67.22;22.73;;;;;;;10.62;90.78;98915.34;3146966;28;20222;-67
2022/11/19 04:12:18;;;;;;;63.13;23.77;;;;;;;10.53;90.61;98895.91;3146785;28;20041;-67
2022/11/19 04:13:49;;;;;;;66.90;25.38;;;;;;;10.60;91.23;98910.22;3146877;28;20055;-67
2022/11/19 04:15:21;;;;;;;62.08;24.05;;;;;;;10.61;91.07;98909.28;3146887;28;20088;-66
2022/11/19 04:16:52;;;;;;;64.45;23.73;;;;;;;10.60;91.09;98902.41;3146741;28;20380;-67
2022/11/19 04:18:24;;;;;;;71.93;24.58;;;;;;;10.52;91.31;98899.41;3146961;28;20052;-67
2022/11/19 04:19:56;;;;;;;70.88;23.67;;;;;;;10.56;91.55;98919.16;3146782;28;20048;-66
2022/11/19 04:21:28;;;;;;;69.45;24.30;;;;;;;10.55;91.22;98920.06;3146876;28;20048;-67
2022/11/19 04:23:00;;;;;;;63.10;23.48;;;;;;;10.52;91.49;98927.22;3146670;28;20096;-67
2022/11/19 04:24:31;;;;;;;68.95;25.45;;;;;;;10.51;91.53;98929.00;3146909;28;20068;-66
2022/11/19 04:26:03;;;;;;;72.43;25.55;;;;;;;10.50;91.14;98932.53;3146502;28;20135;-67
2022/11/19 04:27:35;;;;;;;69.28;25.40;;;;;;;10.36;91.42;98911.66;3146714;28;20051;-67
2022/11/19 04:29:06;;;;;;;78.70;24.95;;;;;;;10.50;91.33;98929.94;3146890;28;20049;-67
2022/11/19 04:30:38;;;;;;;71.50;25.10;;;;;;;10.53;91.53;98942.75;3146630;28;20071;-67
2022/11/19 04:32:10;;;;;;;73.05;25.83;;;;;;;10.54;91.55;98941.81;3146651;28;20052;-67
2022/11/19 04:33:41;;;;;;;68.13;24.88;;;;;;;10.55;91.44;98937.44;3146595;28;20048;-67
2022/11/19 04:35:13;;;;;;;69.97;26.15;;;;;;;10.55;91.75;98940.06;3146669;28;20109;-67
2022/11/19 04:36:45;;;;;;;71.95;25.67;;;;;;;10.55;92.07;98940.06;3146535;28;20148;-68
2022/11/19 04:38:17;;;;;;;76.07;27.38;;;;;;;10.54;92.02;98948.81;3146481;28;20132;-67
2022/11/19 04:39:49;;;;;;;66.72;25.38;;;;;;;10.56;92.21;98954.72;3146638;28;20052;-67
2022/11/19 04:41:20;;;;;;;72.10;25.38;;;;;;;10.56;92.16;98949.53;3145913;28;20078;-67
2022/11/19 04:42:52;;;;;;;77.40;26.33;;;;;;;10.57;92.06;98951.22;3146484;28;20059;-67
2022/11/19 04:44:24;;;;;;;70.43;25.65;;;;;;;10.60;92.31;98961.47;3146404;28;20482;-67
2022/11/19 04:45:55;;;;;;;66.07;24.52;;;;;;;10.60;92.27;98951.03;3146317;28;20083;-67
2022/11/19 04:47:27;;;;;;;77.78;27.48;;;;;;;10.61;92.38;98950.94;3146825;28;20714;-67
2022/11/19 04:48:59;;;;;;;76.90;26.05;;;;;;;10.59;92.11;98950.22;3146476;28;20061;-67
2022/11/19 04:50:30;;;;;;;73.85;24.80;;;;;;;10.59;92.28;98958.03;3146111;28;20053;-68
2022/11/19 04:52:04;;;;;;;67.53;24.60;;;;;;;10.61;92.37;98955.31;3146671;28;20048;-67
2022/11/19 04:53:35;;;;;;;67.45;24.23;;;;;;;10.61;92.23;98961.34;3140659;28;20079;-67
2022/11/19 04:55:07;;;;;;;67.30;25.52;;;;;;;10.61;92.20;98961.34;3139849;28;20490;-68
2022/11/19 04:56:39;;;;;;;72.57;25.95;;;;;;;10.60;92.11;98964.91;3146502;28;20048;-67
2022/11/19 04:58:10;;;;;;;68.65;22.42;;;;;;;10.59;91.78;98968.44;3146444;28;20117;-68
2022/11/19 04:59:42;;;;;;;73.38;24.50;;;;;;;10.60;91.63;98984.88;3146206;28;20139;-69
2022/11/19 05:01:12;;;;;;;62.17;25.10;;;;;;;10.60;91.73;98980.50;3146187;28;20484;-67
2022/11/19 05:02:45;;;;;;;64.80;24.02;;;;;;;10.60;91.51;98980.50;3146659;28;20052;-68
2022/11/19 05:04:16;;;;;;;63.95;24.75;;;;;;;10.47;91.57;98956.97;3146010;28;20198;-67
2022/11/19 05:05:47;;;;;;;78.50;25.27;;;;;;;10.59;91.81;98977.97;3146463;28;20048;-68
2022/11/19 05:07:20;;;;;;;62.22;23.77;;;;;;;10.58;91.74;98987.56;3146085;28;20054;-68
2022/11/19 05:08:52;;;;;;;64.88;23.77;;;;;;;10.56;91.84;98991.19;3146047;28;20041;-68
2022/11/19 05:10:23;;;;;;;67.05;23.42;;;;;;;10.56;92.12;98989.44;3146433;28;20121;-69
2022/11/19 05:11:55;;;;;;;69.22;23.45;;;;;;;10.56;91.83;98997.25;3146119;28;20052;-68
2022/11/19 05:13:27;;;;;;;74.30;24.88;;;;;;;10.57;91.50;98996.31;3146035;28;20044;-67
2022/11/19 05:14:58;;;;;;;65.68;22.95;;;;;;;10.59;91.63;98998.81;3146182;28;20056;-68
2022/11/19 05:16:30;;;;;;;71.28;24.40;;;;;;;10.59;91.66;99007.50;3145079;28;20052;-68
2022/11/19 05:18:01;;;;;;;72.75;25.13;;;;;;;10.59;91.58;99012.69;3146344;28;20060;-67
2022/11/19 05:19:33;;;;;;;58.72;23.30;;;;;;;10.59;91.15;99015.31;3145810;28;20059;-67
2022/11/19 05:21:03;;;;;;;58.03;23.73;;;;;;;10.61;91.30;99015.19;3146270;28;20052;-69
2022/11/19 05:22:37;;;;;;;55.55;23.05;;;;;;;10.59;91.16;99006.63;3146002;28;20056;-67
2022/11/19 05:24:08;;;;;;;;;;;;;;;10.50;91.43;99009.75;3146393;28;20045;-67
2022/11/19 05:25:39;;;;;;;59.22;22.27;;;;;;;10.48;91.81;99012.47;3146092;28;19999;-68
2022/11/19 05:27:11;;;;;;;61.67;23.20;;;;;;;10.50;91.70;99013.22;3146267;28;20118;-67
2022/11/19 05:28:43;;;;;;;64.85;23.27;;;;;;;10.51;91.67;99021.88;3145871;28;20052;-67
2022/11/19 05:30:14;;;;;;;61.03;23.95;;;;;;;10.50;91.39;99036.66;3145897;28;20052;-68
2022/11/19 05:31:46;;;;;;;57.20;22.70;;;;;;;10.52;91.46;99033.94;3145755;28;20131;-67
2022/11/19 05:33:18;;;;;;;57.10;23.02;;;;;;;10.52;91.68;99042.59;3146020;28;20048;-67
2022/11/19 05:34:48;;;;;;;65.35;23.70;;;;;;;10.50;91.86;99033.19;3145635;28;20060;-68
2022/11/19 05:36:20;;;;;;;62.85;24.70;;;;;;;10.50;91.68;99031.44;3145996;28;20135;-68
2022/11/19 05:37:54;;;;;;;70.47;25.67;;;;;;;10.50;91.67;99039.25;3145841;28;20045;-68
2022/11/19 05:39:25;;;;;;;70.38;26.92;;;;;;;10.46;91.89;99041.19;3146218;28;20190;-68
2022/11/19 05:40:57;;;;;;;89.63;29.25;;;;;;;10.44;92.23;99044.78;3145636;28;20049;-68
2022/11/19 05:42:29;;;;;;;74.63;26.95;;;;;;;10.42;92.45;99044.88;3146000;28;20193;-68
2022/11/19 05:44:01;;;;;;;81.50;28.75;;;;;;;10.43;92.44;99049.16;3133506;28;20052;-68
2022/11/19 05:45:33;;;;;;;91.60;29.77;;;;;;;10.43;92.08;99053.53;3144517;28;20045;-68
2022/11/19 05:47:05;;;;;;;107.40;34.17;;;;;;;10.41;92.49;99061.44;3145664;28;20052;-68
2022/11/19 05:48:37;;;;;;;109.30;33.75;;;;;;;10.41;92.40;99071.00;3145569;28;20430;-68
2022/11/19 05:50:09;;;;;;;96.38;34.17;;;;;;;10.42;92.24;99070.91;3145930;28;20056;-69
2022/11/19 05:51:41;;;;;;;111.80;32.15;;;;;;;10.40;92.50;99072.75;3145750;28;20079;-69
2022/11/19 05:53:15;;;;;;;102.22;34.20;;;;;;;10.39;92.73;99072.84;3145438;28;20052;-67
2022/11/19 05:54:46;;;;;;;102.65;33.78;;;;;;;10.34;92.59;99073.09;3145698;28;20363;-68
2022/11/19 05:56:18;;;;;;;100.53;34.33;;;;;;;10.12;92.73;99046.59;3145716;28;20052;-68
2022/11/19 05:57:50;;;;;;;100.82;33.92;;;;;;;10.35;92.65;99092.16;3145447;28;20044;-68
2022/11/19 05:59:22;;;;;;;98.38;33.92;;;;;;;10.36;92.83;99091.25;3145982;28;20056;-69
2022/11/19 06:00:55;;;;;;;99.85;35.70;;;;;;;10.38;92.79;99095.44;3145415;28;20045;-68
2022/11/19 06:02:27;;;;;;;92.60;32.38;;;;;;;10.38;92.66;99103.25;3145393;28;20053;-68
2022/11/19 06:03:59;;;;;;;91.75;31.38;;;;;;;10.37;92.67;99105.94;3145683;28;20106;-69
2022/11/19 06:05:30;;;;;;;90.35;31.42;;;;;;;10.38;92.71;99116.28;3145601;28;20619;-67
2022/11/19 06:07:02;;;;;;;84.80;30.77;;;;;;;10.27;92.13;99103.00;3145528;28;20045;-66
2022/11/19 06:08:35;;;;;;;83.53;31.10;;;;;;;10.39;92.02;99119.72;3145617;28;20048;-67
2022/11/19 06:10:08;;;;;;;81.63;29.75;;;;;;;10.39;91.96;99117.09;3145716;28;20040;-68
2022/11/19 06:11:49;;;;;;;94.13;33.60;;;;;;;10.36;92.32;99125.91;3145418;28;20059;-64
2022/11/19 06:13:21;;;;;;;85.10;29.83;;;;;;;10.37;92.18;99139.78;3145321;28;20154;-68
2022/11/19 06:14:52;;;;;;;81.43;32.58;;;;;;;10.36;92.46;99140.69;3145416;28;20048;-67
2022/11/19 06:16:24;;;;;;;85.68;31.33;;;;;;;10.37;92.39;99140.59;3145384;28;20104;-68
2022/11/19 06:17:57;;;;;;;85.63;31.65;;;;;;;10.38;92.39;99139.69;3145384;28;20409;-68
2022/11/19 06:19:28;;;;;;;75.28;29.33;;;;;;;10.39;92.49;99141.38;3145646;28;20087;-68
2022/11/19 06:21:00;;;;;;;69.50;29.10;;;;;;;10.41;92.23;99136.94;3145384;28;20048;-68
2022/11/19 06:22:32;;;;;;;85.97;31.27;;;;;;;10.42;92.14;99137.75;3145370;28;20547;-68
2022/11/19 06:24:05;;;;;;;80.95;31.63;;;;;;;10.46;92.41;99131.44;3145440;28;20044;-68
2022/11/19 06:25:37;;;;;;;82.40;30.77;;;;;;;10.44;92.42;99128.94;3145348;28;20424;-68
2022/11/19 06:27:09;;;;;;;70.45;30.02;;;;;;;10.43;92.51;99135.06;3144960;28;20052;-68
2022/11/19 06:28:41;;;;;;;77.28;28.95;;;;;;;10.43;92.72;99135.06;3145352;28;20566;-68
2022/11/19 06:30:14;;;;;;;73.28;27.80;;;;;;;10.23;92.34;99104.91;3145328;28;20067;-68
2022/11/19 06:31:46;;;;;;;73.47;29.55;;;;;;;10.42;92.34;99137.75;3145728;28;20048;-68
2022/11/19 06:33:18;;;;;;;65.15;27.48;;;;;;;10.45;92.16;99148.00;3138191;28;20121;-68
2022/11/19 06:34:50;;;;;;;70.35;28.52;;;;;;;10.47;92.38;99149.59;3144879;28;20079;-68
2022/11/19 06:36:21;;;;;;;69.78;28.67;;;;;;;10.48;92.14;99151.28;3145186;28;20479;-68
2022/11/19 06:37:53;;;;;;;62.35;26.45;;;;;;;10.48;91.64;99147.84;3145291;28;20133;-68
2022/11/19 06:39:26;;;;;;;65.53;28.63;;;;;;;10.48;91.54;99150.44;3145188;28;20052;-67
2022/11/19 06:40:58;;;;;;;65.75;25.45;;;;;;;10.47;91.57;99149.59;3144759;28;20479;-67
2022/11/19 06:42:36;;;;;;;69.80;28.95;;;;;;;10.49;91.63;99149.50;3145077;28;20048;-67
2022/11/19 06:44:08;;;;;;;69.40;27.85;;;;;;;10.50;91.83;99159.00;3145188;28;20044;-68
2022/11/19 06:45:39;;;;;;;71.30;28.45;;;;;;;10.53;91.63;99171.84;3145068;28;20470;-68
2022/11/19 06:47:11;;;;;;;72.20;28.70;;;;;;;10.53;91.69;99161.44;3144969;28;20105;-69
2022/11/19 06:48:43;;;;;;;63.03;26.67;;;;;;;10.56;91.63;99170.81;3145038;28;20105;-67
2022/11/19 06:50:15;;;;;;;69.63;29.40;;;;;;;10.59;91.43;99173.25;3145132;28;20048;-68
2022/11/19 06:51:47;;;;;;;62.97;26.67;;;;;;;10.61;91.52;99180.06;3144726;28;20587;-68
2022/11/19 06:53:19;;;;;;;61.05;27.48;;;;;;;10.63;91.70;99162.59;3144995;28;20044;-68
2022/11/19 06:54:52;;;;;;;63.55;28.13;;;;;;;10.60;91.66;99148.91;3144992;28;20570;-67
2022/11/19 06:56:24;;;;;;;63.65;29.60;;;;;;;10.64;91.32;99151.25;3144941;28;20048;-68
2022/11/19 06:57:56;;;;;;;61.63;26.80;;;;;;;10.68;91.22;99157.16;3141652;28;20045;-68
2022/11/19 06:59:28;;;;;;;63.85;28.00;;;;;;;10.70;91.44;99163.91;3144925;28;20087;-68
2022/11/19 07:01:00;;;;;;;61.55;27.90;;;;;;;10.72;91.21;99157.81;3144352;28;20460;-68
2022/11/19 07:02:31;;;;;;;53.75;26.13;;;;;;;10.74;91.42;99166.34;3144750;28;20078;-67
2022/11/19 07:04:03;;;;;;;62.20;28.25;;;;;;;10.76;91.00;99175.75;3144777;28;20523;-67
2022/11/19 07:05:34;;;;;;;58.08;27.67;;;;;;;10.80;91.27;99173.84;3144731;28;20052;-67
2022/11/19 07:07:06;;;;;;;56.40;28.15;;;;;;;10.67;91.13;99134.63;3144885;28;20302;-68
2022/11/19 07:08:38;;;;;;;64.05;28.35;;;;;;;10.87;91.13;99162.16;3144714;28;20051;-67
2022/11/19 07:10:12;;;;;;;64.00;27.23;;;;;;;10.91;90.94;99179.28;3144848;28;20052;-67
2022/11/19 07:11:43;;;;;;;63.70;27.48;;;;;;;10.93;90.77;99180.03;3144790;28;20102;-67
2022/11/19 07:13:15;;;;;;;62.88;27.73;;;;;;;10.94;90.68;99176.50;3144732;28;20060;-67
2022/11/19 07:14:47;;;;;;;59.85;26.77;;;;;;;10.99;90.74;99186.66;3144924;28;20045;-68
2022/11/19 07:16:18;;;;;;;64.93;28.15;;;;;;;11.04;90.76;99190.69;3144927;28;20052;-67
2022/11/19 07:17:50;;;;;;;70.50;28.95;;;;;;;11.09;90.91;99188.69;3144768;28;20116;-68
2022/11/19 07:19:21;;;;;;;67.60;29.15;;;;;;;11.11;90.82;99192.00;3144883;28;20086;-68
2022/11/19 07:20:53;;;;;;;64.70;27.60;;;;;;;11.15;90.73;99197.88;3144648;28;20071;-68
2022/11/19 07:22:26;;;;;;;59.67;28.05;;;;;;;11.20;90.84;99190.66;3144627;28;20077;-66
2022/11/19 07:23:58;;;;;;;61.55;27.42;;;;;;;11.24;90.68;99183.50;3144752;28;20063;-67